createdAt,value
2022-08-04T00:01:29.361Z,23.94
2022-08-04T00:04:33.008Z,23.90
2022-08-04T00:07:42.532Z,23.86
2022-08-04T00:10:08.937Z,23.79
2022-08-04T00:12:39.285Z,23.76
2022-08-04T00:15:06.204Z,23.71
2022-08-04T00:17:45.356Z,23.68
2022-08-04T00:20:12.579Z,23.63
2022-08-04T00:22:35.885Z,23.59
2022-08-04T00:25:02.727Z,23.54
2022-08-04T00:27:24.638Z,23.50
2022-08-04T00:29:48.010Z,23.46
2022-08-04T00:32:29.924Z,23.42
2022-08-04T00:34:58.866Z,23.37
2022-08-04T00:37:26.305Z,23.33
2022-08-04T00:39:49.815Z,23.29
2022-08-04T00:42:34.680Z,23.26
2022-08-04T00:45:30.407Z,23.24
2022-08-04T00:48:59.968Z,23.22
2022-08-04T00:52:32.599Z,23.19
2022-08-04T00:55:07.069Z,23.14
2022-08-04T00:57:57.016Z,23.12
2022-08-04T01:00:20.324Z,23.08
2022-08-04T01:02:51.629Z,23.09
2022-08-04T01:05:50.606Z,23.07
2022-08-04T01:08:36.266Z,23.07
2022-08-04T01:11:04.972Z,23.09
2022-08-04T01:14:07.688Z,23.11
2022-08-04T01:16:43.584Z,23.10
2022-08-04T01:20:08.593Z,23.10
2022-08-04T01:22:33.480Z,23.07
2022-08-04T01:26:42.393Z,23.06
2022-08-04T01:29:15.046Z,23.04
2022-08-04T01:31:53.161Z,23.03
2022-08-04T01:34:19.206Z,23.02
2022-08-04T01:36:54.848Z,23.01
2022-08-04T01:39:39.539Z,22.99
2022-08-04T01:42:04.492Z,22.97
2022-08-04T01:44:31.983Z,22.95
2022-08-04T01:46:54.267Z,22.93
2022-08-04T01:49:17.540Z,22.92
2022-08-04T01:51:40.512Z,22.90
2022-08-04T01:54:02.304Z,22.87
2022-08-04T01:56:28.967Z,22.86
2022-08-04T01:58:51.401Z,22.83
2022-08-04T02:01:13.947Z,22.82
2022-08-04T02:04:19.435Z,22.82
2022-08-04T02:06:39.344Z,22.83
2022-08-04T02:09:32.328Z,22.83
2022-08-04T02:12:18.629Z,22.84
2022-08-04T02:15:03.263Z,22.82
2022-08-04T02:17:59.932Z,22.78
2022-08-04T02:20:35.787Z,22.73
2022-08-04T02:23:06.410Z,22.71
2022-08-04T02:25:37.162Z,22.68
2022-08-04T02:28:40.018Z,22.67
2022-08-04T02:31:07.916Z,22.62
2022-08-04T02:34:16.648Z,22.62
2022-08-04T02:36:42.573Z,22.58
2022-08-04T02:39:08.050Z,22.57
2022-08-04T02:41:32.935Z,22.56
2022-08-04T02:44:02.680Z,22.56
2022-08-04T02:46:25.673Z,22.55
2022-08-04T02:48:51.401Z,22.56
2022-08-04T02:51:16.578Z,22.55
2022-08-04T02:53:41.347Z,22.53
2022-08-04T02:56:04.862Z,22.52
2022-08-04T02:58:35.451Z,22.51
2022-08-04T03:00:57.286Z,22.48
2022-08-04T03:03:37.262Z,22.48
2022-08-04T03:07:03.784Z,22.45
2022-08-04T03:10:04.261Z,22.42
2022-08-04T03:13:04.912Z,22.41
2022-08-04T03:15:51.722Z,22.38
2022-08-04T03:18:50.526Z,22.34
2022-08-04T03:21:50.497Z,22.31
2022-08-04T03:24:54.730Z,22.29
2022-08-04T03:28:01.226Z,22.26
2022-08-04T03:30:53.090Z,22.23
2022-08-04T03:33:41.958Z,22.23
2022-08-04T03:36:52.394Z,22.19
2022-08-04T03:39:57.599Z,22.15
2022-08-04T03:42:41.285Z,22.09
2022-08-04T03:45:51.471Z,22.05
2022-08-04T03:49:09.826Z,21.97
2022-08-04T03:52:32.105Z,21.93
2022-08-04T03:55:27.411Z,21.87
2022-08-04T03:58:07.310Z,21.86
2022-08-04T04:01:25.625Z,21.85
2022-08-04T04:04:33.420Z,21.82
2022-08-04T04:07:42.093Z,21.79
2022-08-04T04:10:34.596Z,21.77
2022-08-04T04:13:30.380Z,21.75
2022-08-04T04:16:33.184Z,21.73
2022-08-04T04:19:31.924Z,21.72
2022-08-04T04:22:15.429Z,21.69
2022-08-04T04:25:00.643Z,21.68
2022-08-04T04:27:22.620Z,21.65
2022-08-04T04:30:11.428Z,21.63
2022-08-04T04:32:45.352Z,21.63
2022-08-04T04:35:47.231Z,21.65
2022-08-04T04:38:39.881Z,21.69
2022-08-04T04:41:19.754Z,21.73
2022-08-04T04:44:21.861Z,21.73
2022-08-04T04:47:00.601Z,21.68
2022-08-04T04:49:49.430Z,21.68
2022-08-04T04:52:30.920Z,21.73
2022-08-04T04:55:27.877Z,21.81
2022-08-04T04:57:58.356Z,21.92
2022-08-04T05:00:20.664Z,21.94
2022-08-04T05:03:49.059Z,21.99
2022-08-04T05:06:36.091Z,22.08
2022-08-04T05:09:09.965Z,22.23
2022-08-04T05:11:45.479Z,22.32
2022-08-04T05:14:34.554Z,22.41
2022-08-04T05:17:15.637Z,22.52
2022-08-04T05:20:25.835Z,22.69
2022-08-04T05:23:11.351Z,22.84
2022-08-04T05:25:58.435Z,22.96
2022-08-04T05:28:41.125Z,23.08
2022-08-04T05:31:12.110Z,23.17
2022-08-04T05:33:43.444Z,23.24
2022-08-04T05:36:32.666Z,23.32
2022-08-04T05:39:02.224Z,23.38
2022-08-04T05:41:32.103Z,23.43
2022-08-04T05:44:10.277Z,23.49
2022-08-04T05:46:32.739Z,23.58
2022-08-04T05:48:55.587Z,23.66
2022-08-04T05:51:18.812Z,23.76
2022-08-04T05:53:44.374Z,23.84
2022-08-04T05:56:07.526Z,23.91
2022-08-04T05:58:31.301Z,23.98
2022-08-04T06:00:55.049Z,24.04
2022-08-04T06:03:21.353Z,24.12
2022-08-04T06:05:45.943Z,24.18
2022-08-04T06:08:13.403Z,24.23
2022-08-04T06:10:40.273Z,24.31
2022-08-04T06:13:08.973Z,24.39
2022-08-04T06:15:53.340Z,24.50
2022-08-04T06:19:57.270Z,24.60
2022-08-04T06:21:03.945Z,24.68
2022-08-04T06:23:57.482Z,24.74
2022-08-04T06:26:27.808Z,24.82
2022-08-04T06:28:51.592Z,24.86
2022-08-04T06:32:30.237Z,24.92
2022-08-04T06:34:06.543Z,25.02
2022-08-04T06:36:31.936Z,25.09
2022-08-04T06:38:58.697Z,25.16
2022-08-04T06:41:22.205Z,25.22
2022-08-04T06:43:44.957Z,25.26
2022-08-04T06:46:12.041Z,25.38
2022-08-04T06:48:35.077Z,25.51
2022-08-04T06:51:26.759Z,25.57
2022-08-04T06:53:40.859Z,25.69
2022-08-04T06:56:04.291Z,25.87
2022-08-04T06:58:30.736Z,26.04
2022-08-04T07:00:55.673Z,26.22
2022-08-04T07:03:20.037Z,26.39
2022-08-04T07:05:42.668Z,26.55
2022-08-04T07:08:05.716Z,26.65
2022-08-04T07:10:29.967Z,26.80
2022-08-04T07:12:54.033Z,26.99
2022-08-04T07:15:18.311Z,27.15
2022-08-04T07:17:42.359Z,27.31
2022-08-04T07:20:06.922Z,27.41
2022-08-04T07:22:30.374Z,27.49
2022-08-04T07:24:57.558Z,27.62
2022-08-04T07:27:48.603Z,27.67
2022-08-04T07:30:05.319Z,27.78
2022-08-04T07:32:28.150Z,27.86
2022-08-04T07:34:51.619Z,27.99
2022-08-04T07:37:15.605Z,28.11
2022-08-04T07:39:48.281Z,28.26
2022-08-04T07:42:11.602Z,28.39
2022-08-04T07:44:35.514Z,28.51
2022-08-04T07:46:57.888Z,28.56
2022-08-04T07:49:56.543Z,28.65
2022-08-04T07:52:04.795Z,28.70
2022-08-04T07:54:27.299Z,28.65
2022-08-04T07:56:51.775Z,28.60
2022-08-04T07:59:14.448Z,28.56
2022-08-04T08:01:37.548Z,28.51
2022-08-04T08:04:00.990Z,28.45
2022-08-04T08:06:32.278Z,28.46
2022-08-04T08:08:57.888Z,28.50
2022-08-04T08:11:20.147Z,28.44
2022-08-04T08:13:43.948Z,28.44
2022-08-04T08:16:06.132Z,28.49
2022-08-04T08:18:28.328Z,28.57
2022-08-04T08:20:52.770Z,28.71
2022-08-04T08:23:14.987Z,28.84
2022-08-04T08:25:37.422Z,28.93
2022-08-04T08:28:02.408Z,29.11
2022-08-04T08:30:31.701Z,29.27
2022-08-04T08:32:53.915Z,29.41
2022-08-04T08:35:16.422Z,29.59
2022-08-04T08:37:47.868Z,29.75
2022-08-04T08:40:44.433Z,29.83
2022-08-04T08:44:00.587Z,29.80
2022-08-04T08:46:00.743Z,29.86
2022-08-04T08:48:55.488Z,29.95
2022-08-04T08:51:53.620Z,30.21
2022-08-04T08:54:44.301Z,30.48
2022-08-04T08:58:00.105Z,30.53
2022-08-04T09:00:45.576Z,30.64
2022-08-04T09:03:51.979Z,30.72
2022-08-04T09:06:47.806Z,30.81
2022-08-04T09:09:51.819Z,30.72
2022-08-04T09:12:28.032Z,30.63
2022-08-04T09:15:23.071Z,30.64
2022-08-04T09:19:05.284Z,30.72
2022-08-04T09:21:38.357Z,30.93
2022-08-04T09:24:36.586Z,30.86
2022-08-04T09:27:28.563Z,30.75
2022-08-04T09:30:08.494Z,30.84
2022-08-04T09:32:57.633Z,30.72
2022-08-04T09:35:57.111Z,30.62
2022-08-04T09:38:52.476Z,30.68
2022-08-04T09:41:48.566Z,30.77
2022-08-04T09:44:56.208Z,30.92
2022-08-04T09:47:54.963Z,31.05
2022-08-04T09:50:39.405Z,31.30
2022-08-04T09:53:41.844Z,31.52
2022-08-04T09:56:32.479Z,31.28
2022-08-04T09:59:04.478Z,31.06
2022-08-04T10:01:32.129Z,31.10
2022-08-04T10:04:02.921Z,31.04
2022-08-04T10:06:43.023Z,30.92
2022-08-04T10:09:44.991Z,30.80
2022-08-04T10:12:44.208Z,30.70
2022-08-04T10:15:46.743Z,30.51
2022-08-04T10:18:37.695Z,30.24
2022-08-04T10:21:23.869Z,29.92
2022-08-04T10:24:13.650Z,29.64
2022-08-04T10:27:26.077Z,29.32
2022-08-04T10:29:48.575Z,29.09
2022-08-04T10:32:43.005Z,28.90
2022-08-04T10:35:20.047Z,28.69
2022-08-04T10:38:08.318Z,28.51
2022-08-04T10:40:46.755Z,28.29
2022-08-04T10:43:46.344Z,28.13
2022-08-04T10:46:26.994Z,27.92
2022-08-04T10:49:04.820Z,27.62
2022-08-04T10:51:58.271Z,27.29
2022-08-04T10:54:48.162Z,26.90
2022-08-04T10:57:23.960Z,26.58
2022-08-04T11:00:00.802Z,26.30
2022-08-04T11:02:53.785Z,26.05
2022-08-04T11:05:43.695Z,25.84
2022-08-04T11:08:35.748Z,25.65
2022-08-04T11:12:00.209Z,25.46
2022-08-04T11:14:37.597Z,25.32
2022-08-04T11:17:22.828Z,25.22
2022-08-04T11:23:11.287Z,25.24
2022-08-04T11:25:52.120Z,25.33
2022-08-04T11:28:24.931Z,25.60
2022-08-04T11:31:03.127Z,25.75
2022-08-04T11:33:52.789Z,25.88
2022-08-04T11:36:36.443Z,25.86
2022-08-04T11:39:12.773Z,25.79
2022-08-04T11:41:48.318Z,25.68
2022-08-04T11:44:23.143Z,25.55
2022-08-04T11:46:51.679Z,25.48
2022-08-04T11:49:31.088Z,25.39
2022-08-04T11:51:57.155Z,25.29
2022-08-04T11:54:21.851Z,25.26
2022-08-04T11:56:43.906Z,25.33
2022-08-04T11:59:08.963Z,25.57
2022-08-04T12:02:08.574Z,25.78
2022-08-04T12:04:59.031Z,26.17
2022-08-04T12:07:40.502Z,26.44
2022-08-04T12:10:40.889Z,26.75
2022-08-04T12:13:44.746Z,26.86
2022-08-04T12:16:30.147Z,26.87
2022-08-04T12:18:58.515Z,26.86
2022-08-04T12:21:53.290Z,26.88
2022-08-04T12:24:27.643Z,27.14
2022-08-04T12:26:58.718Z,27.35
2022-08-04T12:29:25.948Z,27.51
2022-08-04T12:32:01.130Z,27.54
2022-08-04T12:34:43.564Z,27.66
2022-08-04T12:37:09.733Z,27.68
2022-08-04T12:39:32.243Z,27.67
2022-08-04T12:42:14.440Z,27.63
2022-08-04T12:44:41.570Z,27.56
2022-08-04T12:47:26.860Z,27.52
2022-08-04T12:50:01.058Z,27.52
2022-08-04T12:52:45.083Z,27.51
2022-08-04T12:55:09.281Z,27.43
2022-08-04T12:57:36.567Z,27.38
2022-08-04T12:59:58.344Z,27.32
2022-08-04T13:02:30.707Z,27.29
2022-08-04T13:04:59.472Z,27.33
2022-08-04T13:07:28.491Z,27.33
2022-08-04T13:09:51.815Z,27.31
2022-08-04T13:12:25.948Z,27.32
2022-08-04T13:15:10.836Z,27.32
2022-08-04T13:18:04.222Z,27.28
2022-08-04T13:20:38.836Z,27.26
2022-08-04T13:23:09.001Z,27.27
2022-08-04T13:26:44.847Z,27.42
2022-08-04T13:28:27.897Z,27.45
2022-08-04T13:31:01.730Z,27.57
2022-08-04T13:33:34.264Z,27.78
2022-08-04T13:35:59.860Z,28.03
2022-08-04T13:38:25.592Z,28.32
2022-08-04T13:40:48.916Z,28.50
2022-08-04T13:44:16.430Z,28.61
2022-08-04T13:46:26.975Z,28.59
2022-08-04T13:49:08.967Z,28.64
2022-08-04T13:51:58.122Z,28.69
2022-08-04T13:54:17.678Z,28.74
2022-08-04T13:56:49.416Z,28.88
2022-08-04T13:59:17.595Z,28.85
2022-08-04T14:01:47.348Z,28.77
2022-08-04T14:04:22.081Z,28.80
2022-08-04T14:06:59.448Z,28.86
2022-08-04T14:09:35.612Z,28.92
2022-08-04T14:12:38.050Z,28.89
2022-08-04T14:14:54.145Z,28.96
2022-08-04T14:17:29.974Z,29.11
2022-08-04T14:19:57.078Z,29.12
2022-08-04T14:22:30.884Z,29.17
2022-08-04T14:25:18.445Z,29.22
2022-08-04T14:27:54.615Z,29.22
2022-08-04T14:30:35.585Z,29.24
2022-08-04T14:34:04.238Z,29.15
2022-08-04T14:36:04.302Z,29.11
2022-08-04T14:38:46.988Z,28.99
2022-08-04T14:41:09.259Z,29.05
2022-08-04T14:43:31.093Z,29.05
2022-08-04T14:46:05.347Z,29.20
2022-08-04T14:48:27.361Z,29.31
2022-08-04T14:50:51.160Z,29.45
2022-08-04T14:53:17.140Z,29.60
2022-08-04T14:55:44.160Z,29.65
2022-08-04T14:58:33.955Z,29.56
2022-08-04T15:00:50.205Z,29.47
2022-08-04T15:03:13.068Z,29.45
2022-08-04T15:06:02.689Z,29.52
2022-08-04T15:08:19.890Z,29.67
2022-08-04T15:10:44.448Z,29.86
2022-08-04T15:13:07.542Z,29.88
2022-08-04T15:15:36.876Z,29.92
2022-08-04T15:17:59.940Z,30.10
2022-08-04T15:20:22.923Z,30.24
2022-08-04T15:22:44.970Z,30.33
2022-08-04T15:25:07.274Z,30.17
2022-08-04T15:27:38.497Z,30.24
2022-08-04T15:30:04.275Z,30.35
2022-08-04T15:32:30.076Z,30.25
2022-08-04T15:34:54.911Z,30.12
2022-08-04T15:37:37.201Z,30.05
2022-08-04T15:40:14.076Z,29.88
2022-08-04T15:43:18.871Z,29.64
2022-08-04T15:46:02.114Z,29.66
2022-08-04T15:48:38.188Z,29.80
2022-08-04T15:51:07.068Z,29.84
2022-08-04T15:54:03.002Z,29.73
2022-08-04T15:56:27.938Z,29.64
2022-08-04T15:58:52.939Z,29.61
2022-08-04T16:01:16.079Z,29.60
2022-08-04T16:04:00.611Z,29.63
2022-08-04T16:06:23.744Z,29.65
2022-08-04T16:08:57.206Z,29.57
2022-08-04T16:11:30.982Z,29.50
2022-08-04T16:14:02.507Z,29.37
2022-08-04T16:16:42.347Z,29.32
2022-08-04T16:19:07.450Z,29.27
2022-08-04T16:21:33.401Z,29.31
2022-08-04T16:24:02.287Z,29.30
2022-08-04T16:26:53.747Z,29.29
2022-08-04T16:29:40.564Z,29.25
2022-08-04T16:32:05.655Z,29.11
2022-08-04T16:34:48.205Z,29.08
2022-08-04T16:37:12.977Z,29.09
2022-08-04T16:39:50.852Z,29.10
2022-08-04T16:42:29.665Z,29.19
2022-08-04T16:45:20.992Z,29.30
2022-08-04T16:47:48.964Z,29.37
2022-08-04T16:50:11.278Z,29.34
2022-08-04T16:52:40.968Z,29.18
2022-08-04T16:55:03.778Z,28.99
2022-08-04T16:57:25.897Z,28.83
2022-08-04T16:59:52.285Z,28.79
2022-08-04T17:02:14.424Z,28.67
2022-08-04T17:04:36.368Z,28.57
2022-08-04T17:07:05.248Z,28.61
2022-08-04T17:09:28.898Z,28.71
2022-08-04T17:11:52.949Z,28.83
2022-08-04T17:14:23.406Z,28.89
2022-08-04T17:16:45.259Z,28.89
2022-08-04T17:19:19.795Z,28.90
2022-08-04T17:21:47.174Z,28.92
2022-08-04T17:24:15.706Z,28.93
2022-08-04T17:29:44.201Z,28.74
2022-08-04T17:32:07.293Z,28.55
2022-08-04T17:34:29.306Z,28.44
2022-08-04T17:36:51.860Z,28.31
2022-08-04T17:39:23.352Z,28.26
2022-08-04T17:41:48.652Z,28.18
2022-08-04T17:44:11.479Z,28.04
2022-08-04T17:46:41.901Z,27.96
2022-08-04T17:49:25.475Z,27.90
2022-08-04T17:52:05.235Z,27.88
2022-08-04T17:54:37.096Z,27.81
2022-08-04T17:57:22.181Z,27.72
2022-08-04T17:59:58.879Z,27.64
2022-08-04T18:02:33.488Z,27.58
2022-08-04T18:05:09.998Z,27.58
2022-08-04T18:08:34.855Z,27.59
2022-08-04T18:10:27.821Z,27.48
2022-08-04T18:13:06.098Z,27.33
2022-08-04T18:15:44.316Z,27.16
2022-08-04T18:18:23.710Z,27.01
2022-08-04T18:20:46.014Z,26.86
2022-08-04T18:23:16.816Z,26.77
2022-08-04T18:25:51.555Z,26.64
2022-08-04T18:28:17.346Z,26.53
2022-08-04T18:30:54.971Z,26.40
2022-08-04T18:33:39.642Z,26.31
2022-08-04T18:36:36.479Z,26.21
2022-08-04T18:38:55.716Z,26.12
2022-08-04T18:41:20.356Z,25.97
2022-08-04T18:43:42.379Z,25.83
2022-08-04T18:46:17.983Z,25.68
2022-08-04T18:48:41.313Z,25.52
2022-08-04T18:51:22.498Z,25.36
2022-08-04T18:53:55.203Z,25.22
2022-08-04T18:56:29.605Z,25.09
2022-08-04T18:58:53.436Z,24.98
2022-08-04T19:01:16.106Z,24.90
2022-08-04T19:03:40.930Z,24.80
2022-08-04T19:06:07.459Z,24.70
2022-08-04T19:08:34.590Z,24.62
2022-08-04T19:11:00.279Z,24.55
2022-08-04T19:13:25.594Z,24.49
2022-08-04T19:15:50.676Z,24.46
2022-08-04T19:18:12.678Z,24.39
2022-08-04T19:20:40.577Z,24.32
2022-08-04T19:24:10.559Z,24.27
2022-08-04T19:26:03.709Z,24.22
2022-08-04T19:28:31.886Z,24.13
2022-08-04T19:30:57.691Z,24.08
2022-08-04T19:33:19.582Z,24.03
2022-08-04T19:38:29.613Z,23.98
2022-08-04T19:40:52.782Z,23.94
2022-08-04T19:43:15.524Z,23.91
2022-08-04T19:45:44.473Z,23.88
2022-08-04T19:48:16.631Z,23.86
2022-08-04T19:50:41.443Z,23.83
2022-08-04T19:53:18.809Z,23.81
2022-08-04T19:55:41.817Z,23.77
2022-08-04T19:58:12.261Z,23.74
2022-08-04T20:00:35.755Z,23.72
2022-08-04T20:02:59.612Z,23.71
2022-08-04T20:05:22.027Z,23.73
2022-08-04T20:08:04.170Z,23.69
2022-08-04T20:10:28.851Z,23.69
2022-08-04T20:12:55.749Z,23.71
2022-08-04T20:15:18.343Z,23.72
2022-08-04T20:18:08.416Z,23.71
2022-08-04T20:20:22.604Z,23.71
2022-08-04T20:22:52.397Z,23.68
2022-08-04T20:25:35.552Z,23.65
2022-08-04T20:28:00.411Z,23.62
2022-08-04T20:30:23.190Z,23.60
2022-08-04T20:32:52.778Z,23.59
2022-08-04T20:35:15.772Z,23.50
2022-08-04T20:37:59.980Z,23.44
2022-08-04T20:40:22.553Z,23.42
2022-08-04T20:42:46.228Z,23.42
2022-08-04T20:45:09.386Z,23.42
2022-08-04T20:47:39.381Z,23.41
2022-08-04T20:50:02.018Z,23.37
2022-08-04T20:52:23.902Z,23.34
2022-08-04T20:54:49.302Z,23.30
2022-08-04T20:57:18.248Z,23.27
2022-08-04T21:00:00.534Z,23.24
2022-08-04T21:02:22.678Z,23.23
2022-08-04T21:04:48.467Z,23.26
2022-08-04T21:07:11.184Z,23.26
2022-08-04T21:09:50.102Z,23.23
2022-08-04T21:12:26.612Z,23.12
2022-08-04T21:14:50.529Z,23.00
2022-08-04T21:17:16.999Z,22.86
2022-08-04T21:19:40.942Z,22.72
2022-08-04T21:24:49.996Z,22.39
2022-08-04T21:27:12.538Z,22.32
2022-08-04T21:29:35.817Z,22.28
2022-08-04T21:31:58.116Z,22.22
2022-08-04T21:34:38.287Z,22.18
2022-08-04T21:37:01.973Z,22.13
2022-08-04T21:39:24.410Z,22.09
2022-08-04T21:42:28.166Z,22.05
2022-08-04T21:44:36.472Z,22.00
2022-08-04T21:46:59.372Z,21.86
2022-08-04T21:49:21.354Z,21.60
2022-08-04T21:51:58.012Z,21.43
2022-08-04T21:54:23.913Z,21.35
2022-08-04T21:56:49.251Z,21.21
2022-08-04T21:59:14.288Z,21.10
2022-08-04T22:01:52.378Z,21.01
2022-08-04T22:04:17.772Z,20.95
2022-08-04T22:06:39.705Z,20.93
2022-08-04T22:09:03.117Z,20.90
2022-08-04T22:11:48.887Z,20.89
2022-08-04T22:14:12.365Z,20.87
2022-08-04T22:16:35.714Z,20.80
2022-08-04T22:19:00.102Z,20.70
2022-08-04T22:21:23.799Z,20.63
2022-08-04T22:23:47.061Z,20.57
2022-08-04T22:26:26.582Z,20.56
2022-08-04T22:28:51.408Z,20.51
2022-08-04T22:31:24.177Z,20.45
2022-08-04T22:33:55.188Z,20.33
2022-08-04T22:36:18.851Z,20.23
2022-08-04T22:38:48.884Z,20.21
2022-08-04T22:41:17.947Z,20.21
2022-08-04T22:43:42.206Z,20.17
2022-08-04T22:46:08.229Z,20.13
2022-08-04T22:48:32.033Z,20.07
2022-08-04T22:50:55.046Z,20.05
2022-08-04T22:53:17.797Z,20.03
2022-08-04T22:55:57.587Z,19.98
2022-08-04T22:58:21.964Z,19.95
2022-08-04T23:00:52.050Z,19.96
2022-08-04T23:03:37.630Z,19.98
2022-08-04T23:05:56.946Z,19.99
2022-08-04T23:08:19.537Z,19.97
2022-08-04T23:10:44.010Z,19.98
2022-08-04T23:13:06.453Z,20.00
2022-08-04T23:15:33.434Z,20.02
2022-08-04T23:17:55.977Z,20.04
2022-08-04T23:20:23.144Z,20.08
2022-08-04T23:22:45.601Z,20.12
2022-08-04T23:25:16.231Z,20.18
2022-08-04T23:27:43.704Z,20.25
2022-08-04T23:30:07.523Z,20.28
2022-08-04T23:32:29.389Z,20.28
2022-08-04T23:34:53.382Z,20.28
2022-08-04T23:37:15.686Z,20.27
2022-08-04T23:40:03.807Z,20.27
2022-08-04T23:42:21.318Z,20.27
2022-08-04T23:44:43.442Z,20.23
2022-08-04T23:47:07.891Z,20.21
2022-08-04T23:49:42.272Z,20.16
2022-08-04T23:52:07.321Z,20.16
2022-08-04T23:54:37.703Z,20.17
2022-08-04T23:57:04.113Z,20.17
2022-08-04T23:59:51.767Z,20.16
